DW4393 Weather Reports


Display with metric or nautical units.
time (UTC)temp
F
wind
direction
speed
MPH
gust
MPH
rain 1hr
in
rain 24hr
in
rain mn
in
humidity
%
barometer
mb
20200225131803 49 32 0.0 0.0 0.00 1.20 0.04 98 1010.0
20200225131304 49 28 0.0 0.0 0.00 1.20 0.04 98 1009.9
20200225130804 49 28 0.0 0.0 0.00 1.20 0.04 98 1009.9
20200225130303 49 28 0.0 0.0 0.00 1.20 0.04 98 1009.9
20200225124803 49 28 0.0 0.0 0.00 1.21 0.04 98 1009.8
20200225124304 49 28 0.0 0.0 0.00 1.21 0.04 98 1009.8
20200225123804 49 28 0.0 0.0 0.00 1.21 0.04 98 1009.7
20200225123304 49 28 0.0 0.0 0.00 1.21 0.04 98 1009.6
20200225121804 49 28 0.0 0.0 0.00 1.22 0.04 97 1009.6
20200225121303 49 28 0.0 0.0 0.00 1.22 0.04 98 1009.6
20200225120804 49 28 0.0 0.0 0.00 1.22 0.04 97 1009.5
20200225120304 49 28 0.0 0.0 0.00 1.23 0.04 97 1009.4
20200225114803 49 290 0.0 0.0 0.00 1.23 0.04 97 1009.4
20200225114303 49 290 0.0 0.0 0.00 1.24 0.04 98 1009.3
20200225113804 49 290 0.0 0.0 0.00 1.24 0.04 97 1009.2
20200225113304 49 290 0.0 0.0 0.00 1.24 0.04 97 1009.2
20200225111804 49 290 0.0 0.0 0.00 1.24 0.04 97 1009.0
20200225111303 49 290 0.0 0.0 0.00 1.25 0.04 97 1009.0
20200225110804 49 290 0.0 0.0 0.00 1.25 0.04 97 1009.1
20200225110304 48 290 0.0 0.0 0.00 1.25 0.04 97 1009.0
20200225104804 48 290 0.0 0.0 0.00 1.25 0.04 97 1008.9
20200225104303 48 290 0.0 0.0 0.00 1.25 0.04 97 1008.8
20200225103804 48 290 0.0 0.0 0.00 1.25 0.04 97 1008.7
20200225103303 48 290 0.0 0.0 0.00 1.25 0.04 97 1008.7
20200225101804 48 290 0.0 0.0 0.01 1.26 0.04 97 1008.7
20200225101304 48 290 0.0 0.0 0.01 1.26 0.04 97 1008.6
20200225100804 48 290 0.0 0.0 0.01 1.26 0.04 97 1008.7
20200225100303 48 290 0.0 0.0 0.01 1.27 0.04 97 1008.5
20200225094804 48 290 0.0 0.0 0.01 1.27 0.04 97 1008.4
20200225094304 48 290 0.0 0.0 0.01 1.27 0.04 97 1008.4
20200225093804 48 290 0.0 0.0 0.01 1.27 0.04 97 1008.3
20200225093304 48 290 0.0 0.0 0.01 1.27 0.04 97 1008.4
20200225091803 48 290 0.0 0.0 0.00 1.26 0.03 97 1008.2
20200225091303 48 290 0.0 0.0 0.00 1.26 0.03 97 1008.2
20200225090803 48 290 0.0 0.0 0.00 1.27 0.03 97 1008.2
20200225090304 48 290 0.0 0.0 0.00 1.27 0.03 97 1008.3
20200225084804 48 290 0.0 0.0 0.00 1.27 0.03 97 1008.4
20200225084303 48 290 0.0 0.0 0.00 1.27 0.03 97 1008.5
20200225083804 48 290 0.0 0.0 0.00 1.27 0.03 97 1008.4
20200225083303 48 290 0.0 0.0 0.00 1.27 0.03 97 1008.5
20200225081803 48 290 0.0 0.0 0.00 1.27 0.03 97 1008.5
20200225081304 48 290 0.0 0.0 0.00 1.27 0.03 97 1008.5
20200225080804 48 290 0.0 0.0 0.00 1.27 0.03 97 1008.7
20200225080304 48 290 0.0 0.0 0.00 1.27 0.03 97 1008.7
20200225074804 48 290 0.0 0.0 0.00 1.27 0.03 97 1008.8
20200225074303 48 290 0.0 0.0 0.00 1.27 0.03 97 1008.8
20200225073803 48 290 0.0 0.0 0.00 1.27 0.03 97 1008.6
20200225073304 48 290 0.0 0.0 0.01 1.27 0.03 97 1008.7
20200225071804 48 290 0.0 0.0 0.02 1.27 0.03 97 1009.1
20200225071303 48 290 0.0 0.0 0.02 1.27 0.03 97 1009.2
20200225070804 48 290 0.0 0.0 0.03 1.27 0.03 97 1009.1
20200225070304 48 290 0.0 0.0 0.03 1.27 0.03 97 1009.2
20200225064804 48 290 0.0 0.0 0.03 1.27 0.03 97 1009.3
20200225064304 48 290 0.0 0.0 0.03 1.27 0.03 97 1009.3
20200225063804 48 290 0.0 0.0 0.03 1.27 0.03 97 1009.4
20200225063303 48 290 0.0 1.0 0.02 1.26 0.02 97 1009.5
20200225061804 48 50 0.0 0.0 0.01 1.25 0.01 97 1009.6
20200225061303 48 50 0.0 0.0 0.01 1.25 0.01 97 1009.4
20200225060803 48 50 0.0 0.0 0.00 1.24 0.00 97 1009.5
20200225060303 48 50 0.0 0.0 0.00 1.24 0.00 97 1009.5
20200225054803 48 50 0.0 0.0 0.00 1.24 0.00 97 1009.7
20200225054303 48 50 0.0 0.0 0.00 1.24 0.00 97 1009.8
20200225053803 48 50 0.0 0.0 0.00 1.24 0.00 97 1009.7
20200225053303 48 50 0.0 3.0 0.00 1.24 0.00 97 1009.9
20200225051803 48 18 1.0 3.0 0.00 1.24 0.00 97 1010.1
20200225051303 48 30 2.0 3.0 0.00 1.24 0.00 97 1010.4
20200225050823 48 327 2.0 5.0 0.00 1.24 0.00 97 1010.5
20200225050310 48 349 3.0 6.0 0.01 1.24 0.00 97 1010.7
20200225044804 48 11 1.0 2.0 0.01 1.24 1.24 97 1009.9
20200225044302 47 148 0.0 1.0 0.02 1.24 1.24 97 1009.5
20200225043803 47 148 0.0 3.0 0.02 1.24 1.24 97 1008.9
20200225043303 47 153 0.0 9.0 0.02 1.24 1.24 97 1008.9
20200225041803 47 134 1.0 5.0 0.02 1.24 1.24 97 1009.7
20200225041303 47 115 0.0 3.0 0.03 1.24 1.24 97 1009.6
20200225040803 47 132 1.0 3.0 0.03 1.24 1.24 97 1009.9
20200225040303 47 261 0.0 3.0 0.02 1.23 1.23 97 1011.0
20200225034804 47 159 1.0 3.0 0.04 1.23 1.23 97 1011.2
20200225034303 47 155 0.0 3.0 0.03 1.22 1.22 97 1011.2
20200225033804 47 93 0.0 1.0 0.03 1.22 1.22 97 1011.6
20200225033302 47 89 0.0 3.0 0.05 1.22 1.22 96 1011.9
20200225031803 47 122 0.0 6.0 0.08 1.22 1.22 97 1011.7
20200225031303 47 190 2.0 6.0 0.07 1.21 1.21 96 1011.6
20200225030803 47 196 2.0 10.0 0.07 1.21 1.21 96 1011.8
20200225030303 47 163 2.0 5.0 0.08 1.21 1.21 96 1011.7
20200225024803 47 159 1.0 3.0 0.09 1.19 1.19 96 1011.9
20200225024303 47 115 0.0 0.0 0.09 1.19 1.19 96 1012.6
20200225023803 47 115 0.0 1.0 0.10 1.19 1.19 96 1012.7
20200225023303 47 132 0.0 2.0 0.09 1.17 1.17 96 1012.8
20200225021803 47 132 1.0 3.0 0.07 1.14 1.14 96 1012.6
20200225021304 47 189 1.0 5.0 0.08 1.14 1.14 96 1012.4
20200225020803 47 140 0.0 0.0 0.08 1.14 1.14 96 1011.8
20200225020303 47 107 0.0 3.0 0.07 1.13 1.13 96 1012.1
20200225014803 47 153 0.0 5.0 0.07 1.10 1.10 96 1012.6
20200225014303 47 97 0.0 3.0 0.09 1.10 1.10 96 1012.3
20200225013803 47 102 1.0 3.0 0.10 1.09 1.09 96 1012.0
20200225013303 47 187 1.0 3.0 0.11 1.08 1.08 96 1012.2
20200225011803 47 303 0.0 0.0 0.17 1.07 1.07 96 1013.0
20200225011303 47 303 0.0 2.0 0.18 1.06 1.06 96 1013.0
20200225010803 47 303 0.0 2.0 0.20 1.06 1.06 96 1012.8
20200225010303 47 302 0.0 9.0 0.24 1.06 1.06 96 1012.8
20200225004804 47 114 0.0 3.0 0.27 1.03 1.03 96 1012.2
20200225004303 47 110 1.0 3.0 0.26 1.01 1.01 96 1012.9
20200225003804 47 94 0.0 5.0 0.25 0.99 0.99 96 1012.9
20200225003303 47 114 0.0 3.0 0.25 0.97 0.97 96 1012.8
20200225001803 47 59 0.0 1.0 0.24 0.90 0.90 96 1013.1
20200225001303 47 51 0.0 1.0 0.23 0.88 0.88 96 1013.2
20200225000803 47 50 1.0 5.0 0.22 0.86 0.86 96 1013.1
20200225000303 47 45 1.0 5.0 0.19 0.82 0.82 96 1013.2
20200224234803 47 80 1.0 3.0 0.16 0.76 0.76 96 1012.8
20200224234304 47 80 1.0 2.0 0.15 0.75 0.75 96 1012.7
20200224233803 47 39 1.0 3.0 0.15 0.74 0.74 96 1012.8
20200224233303 47 51 1.0 5.0 0.14 0.72 0.72 96 1012.8
20200224231804 47 123 1.0 3.0 0.08 0.66 0.66 96 1013.2
20200224231303 47 173 0.0 1.0 0.08 0.65 0.65 96 1013.3
20200224230803 47 140 1.0 5.0 0.08 0.64 0.64 96 1013.3
20200224230303 47 131 1.0 6.0 0.08 0.63 0.63 96 1013.4
20200224224803 47 104 0.0 5.0 0.06 0.60 0.60 96 1013.6
20200224224303 47 110 1.0 3.0 0.06 0.60 0.60 96 1013.5
20200224223803 47 137 1.0 6.0 0.05 0.59 0.59 96 1013.6
20200224223303 47 184 0.0 6.0 0.04 0.58 0.58 96 1013.7
20200224221803 47 112 1.0 3.0 0.04 0.58 0.58 96 1013.8
20200224221303 47 107 0.0 1.0 0.03 0.57 0.57 96 1013.7
20200224220803 47 107 0.0 3.0 0.03 0.56 0.56 96 1013.7
20200224220303 47 116 1.0 3.0 0.02 0.55 0.55 96 1013.8
20200224214803 47 142 0.0 2.0 0.03 0.54 0.54 96 1013.7
20200224214304 47 95 2.0 5.0 0.04 0.54 0.54 96 1013.6
20200224213803 47 90 0.0 1.0 0.06 0.54 0.54 96 1013.6
20200224213303 47 106 1.0 5.0 0.07 0.54 0.54 96 1013.8
20200224211803 47 53 0.0 3.0 0.08 0.54 0.54 96 1014.0
20200224211303 47 53 1.0 3.0 0.08 0.54 0.54 96 1014.2
20200224210803 46 51 1.0 3.0 0.08 0.53 0.53 96 1014.3
20200224210303 46 55 1.0 3.0 0.08 0.53 0.53 96 1014.5
20200224204803 46 65 0.0 3.0 0.06 0.51 0.51 96 1014.2
20200224204303 46 67 0.0 0.0 0.05 0.50 0.50 96 1014.4
20200224203804 46 67 0.0 0.0 0.03 0.48 0.48 96 1014.6
20200224203304 46 67 0.0 1.0 0.02 0.47 0.47 96 1014.6
20200224201804 46 84 0.0 0.0 0.01 0.46 0.46 95 1014.8
20200224201304 46 84 0.0 2.0 0.01 0.46 0.46 95 1014.9
20200224200803 46 57 0.0 3.0 0.00 0.45 0.45 95 1014.9
20200224200303 46 213 0.0 6.0 0.00 0.45 0.45 95 1014.9
20200224194803 46 112 0.0 3.0 0.01 0.45 0.45 96 1014.8
20200224194303 46 111 0.0 2.0 0.02 0.45 0.45 96 1014.9
20200224193804 46 84 0.0 3.0 0.02 0.45 0.45 96 1014.8
20200224193303 46 136 0.0 3.0 0.03 0.45 0.45 96 1014.8
20200224191803 46 157 1.0 3.0 0.05 0.45 0.45 96 1015.3
20200224191303 46 116 1.0 3.0 0.05 0.45 0.45 96 1015.3
20200224190803 46 128 0.0 0.0 0.05 0.45 0.45 96 1015.3
20200224190303 46 65 0.0 1.0 0.06 0.45 0.45 96 1015.4
20200224184804 46 196 0.0 1.0 0.06 0.44 0.44 95 1015.9
20200224184303 46 197 0.0 1.0 0.05 0.43 0.43 95 1015.9
20200224183804 46 200 0.0 1.0 0.06 0.43 0.43 95 1016.1
20200224183304 46 198 1.0 3.0 0.06 0.42 0.42 95 1016.2
20200224181804 46 165 0.0 3.0 0.05 0.40 0.40 96 1016.7
20200224181303 46 208 1.0 3.0 0.05 0.40 0.40 96 1016.7
20200224180803 46 144 1.0 3.0 0.05 0.40 0.40 96 1016.8
20200224180303 46 130 1.0 5.0 0.05 0.39 0.39 96 1016.9
20200224174804 45 151 2.0 3.0 0.06 0.38 0.38 96 1017.1
20200224174303 45 180 0.0 3.0 0.06 0.38 0.38 96 1017.0
20200224173804 45 149 0.0 3.0 0.06 0.37 0.37 96 1017.1
20200224173303 45 187 0.0 2.0 0.06 0.36 0.36 96 1017.3
20200224171804 45 182 0.0 1.0 0.08 0.35 0.35 96 1017.6
20200224171304 45 182 0.0 6.0 0.08 0.35 0.35 96 1017.6
20200224170804 45 152 2.0 5.0 0.09 0.35 0.35 96 1017.7
20200224170304 45 169 0.0 3.0 0.08 0.34 0.34 96 1017.9
20200224164803 45 109 0.0 3.0 0.08 0.32 0.32 95 1018.2
20200224164304 45 154 0.0 3.0 0.09 0.32 0.32 95 1018.2
20200224163804 45 83 0.0 2.0 0.10 0.31 0.31 95 1018.4
20200224163303 45 90 1.0 3.0 0.10 0.30 0.30 95 1018.5
20200224161805 44 38 0.0 1.0 0.10 0.27 0.27 95 1018.7
20200224161303 44 38 1.0 3.0 0.11 0.27 0.27 95 1018.8
20200224160803 44 38 0.0 1.0 0.10 0.26 0.26 95 1018.8
20200224160303 44 37 1.0 3.0 0.10 0.26 0.26 95 1019.0
20200224154805 44 69 0.0 2.0 0.09 0.24 0.24 95 1019.1
20200224154303 44 69 0.0 0.0 0.09 0.23 0.23 95 1019.1
20200224153803 44 69 0.0 1.0 0.07 0.21 0.21 95 1019.3
20200224153303 44 69 0.0 1.0 0.07 0.20 0.20 94 1019.2
20200224151804 44 68 0.0 0.0 0.06 0.17 0.17 95 1018.8
20200224151304 44 68 0.0 0.0 0.05 0.16 0.16 95 1018.7
20200224150803 44 68 0.0 0.0 0.06 0.16 0.16 95 1018.7
20200224150303 44 68 0.0 2.0 0.06 0.16 0.16 95 1018.7
20200224144803 44 69 0.0 2.0 0.06 0.15 0.15 95 1018.5
20200224144304 44 67 0.0 0.0 0.05 0.14 0.14 95 1018.6
20200224143803 44 67 0.0 1.0 0.05 0.14 0.14 95 1018.7
20200224143304 44 67 0.0 1.0 0.04 0.13 0.13 94 1018.8
20200224141803 44 67 0.0 0.0 0.03 0.11 0.11 94 1018.9
20200224141304 44 65 0.0 2.0 0.03 0.11 0.11 94 1019.1
20200224140805 44 63 0.0 1.0 0.02 0.10 0.10 94 1018.9
20200224140303 44 63 0.0 0.0 0.02 0.10 0.10 94 1018.9
20200224135804 44 63 1.0 3.0 0.02 0.10 0.10 94 1018.9
20200224135304 44 63 3.0 5.0 0.03 0.10 0.10 94 1018.7
20200224134804 44 51 1.0 3.0 0.02 0.09 0.09 94 1018.9
20200224134304 44 61 1.0 3.0 0.02 0.09 0.09 94 1018.8
20200224133804 44 62 1.0 3.0 0.02 0.09 0.09 94 1018.7
20200224133303 44 62 1.0 2.0 0.02 0.09 0.09 94 1018.7